sensor_id;sensor_type;location;lat;lon;timestamp;pressure;altitude;pressure_sealevel;temperature;humidity
73842;BME280;62184;52.006;5.924;2023-08-17T00:02:05;101237.00;;;23.77;47.09
73842;BME280;62184;52.006;5.924;2023-08-17T00:04:31;101248.78;;;23.78;47.33
73842;BME280;62184;52.006;5.924;2023-08-17T00:06:58;101244.97;;;23.80;47.63
73842;BME280;62184;52.006;5.924;2023-08-17T00:09:24;101244.66;;;23.85;47.51
73842;BME280;62184;52.006;5.924;2023-08-17T00:11:50;101242.78;;;23.85;47.19
73842;BME280;62184;52.006;5.924;2023-08-17T00:14:17;101249.34;;;23.83;47.16
73842;BME280;62184;52.006;5.924;2023-08-17T00:16:46;101246.19;;;23.76;47.34
73842;BME280;62184;52.006;5.924;2023-08-17T00:19:12;101240.09;;;23.73;46.98
73842;BME280;62184;52.006;5.924;2023-08-17T00:21:39;101242.03;;;23.71;47.12
73842;BME280;62184;52.006;5.924;2023-08-17T00:24:06;101244.88;;;23.69;47.18
73842;BME280;62184;52.006;5.924;2023-08-17T00:26:33;101237.72;;;23.68;47.18
73842;BME280;62184;52.006;5.924;2023-08-17T00:28:59;101240.44;;;23.68;47.53
73842;BME280;62184;52.006;5.924;2023-08-17T00:31:26;101231.50;;;23.66;47.07
73842;BME280;62184;52.006;5.924;2023-08-17T00:33:55;101233.44;;;23.64;47.66
73842;BME280;62184;52.006;5.924;2023-08-17T00:36:21;101244.56;;;23.61;47.70
73842;BME280;62184;52.006;5.924;2023-08-17T00:38:48;101237.91;;;23.65;47.46
73842;BME280;62184;52.006;5.924;2023-08-17T00:41:14;101238.78;;;23.66;47.48
73842;BME280;62184;52.006;5.924;2023-08-17T00:43:41;101238.91;;;23.64;47.53
73842;BME280;62184;52.006;5.924;2023-08-17T00:46:07;101235.31;;;23.64;47.40
73842;BME280;62184;52.006;5.924;2023-08-17T00:48:34;101246.09;;;23.65;47.12
73842;BME280;62184;52.006;5.924;2023-08-17T00:51:05;101239.25;;;23.60;47.60
73842;BME280;62184;52.006;5.924;2023-08-17T00:53:32;101240.56;;;23.54;47.51
73842;BME280;62184;52.006;5.924;2023-08-17T00:55:59;101232.81;;;23.48;47.56
73842;BME280;62184;52.006;5.924;2023-08-17T00:58:28;101231.19;;;23.45;47.54
73842;BME280;62184;52.006;5.924;2023-08-17T01:00:55;101227.56;;;23.45;48.03
73842;BME280;62184;52.006;5.924;2023-08-17T01:03:22;101237.63;;;23.44;47.81
73842;BME280;62184;52.006;5.924;2023-08-17T01:05:50;101232.06;;;23.46;47.81
73842;BME280;62184;52.006;5.924;2023-08-17T01:08:19;101235.03;;;23.43;47.88
73842;BME280;62184;52.006;5.924;2023-08-17T01:10:52;101239.59;;;23.42;47.89
73842;BME280;62184;52.006;5.924;2023-08-17T01:13:31;101239.72;;;23.41;47.79
73842;BME280;62184;52.006;5.924;2023-08-17T01:16:05;101247.88;;;23.41;48.14
73842;BME280;62184;52.006;5.924;2023-08-17T01:18:40;101248.66;;;23.43;48.37
73842;BME280;62184;52.006;5.924;2023-08-17T01:21:10;101256.59;;;23.46;48.10
73842;BME280;62184;52.006;5.924;2023-08-17T01:23:44;101256.38;;;23.49;48.28
73842;BME280;62184;52.006;5.924;2023-08-17T01:26:10;101248.19;;;23.49;48.28
73842;BME280;62184;52.006;5.924;2023-08-17T01:28:37;101245.69;;;23.46;47.96
73842;BME280;62184;52.006;5.924;2023-08-17T01:31:08;101243.19;;;23.43;47.74
73842;BME280;62184;52.006;5.924;2023-08-17T01:33:40;101236.41;;;23.36;48.35
73842;BME280;62184;52.006;5.924;2023-08-17T01:36:19;101238.41;;;23.34;48.59
73842;BME280;62184;52.006;5.924;2023-08-17T01:38:51;101231.09;;;23.34;48.25
73842;BME280;62184;52.006;5.924;2023-08-17T01:41:20;101238.81;;;23.28;48.52
73842;BME280;62184;52.006;5.924;2023-08-17T01:43:48;101243.91;;;23.19;48.84
73842;BME280;62184;52.006;5.924;2023-08-17T01:46:17;101235.31;;;23.13;49.16
73842;BME280;62184;52.006;5.924;2023-08-17T01:48:44;101233.91;;;23.07;49.05
73842;BME280;62184;52.006;5.924;2023-08-17T01:51:15;101230.84;;;22.99;49.18
73842;BME280;62184;52.006;5.924;2023-08-17T01:53:43;101220.94;;;22.98;49.12
73842;BME280;62184;52.006;5.924;2023-08-17T01:56:12;101221.81;;;22.99;49.71
73842;BME280;62184;52.006;5.924;2023-08-17T01:58:39;101222.09;;;22.94;49.74
73842;BME280;62184;52.006;5.924;2023-08-17T02:01:06;101210.25;;;22.95;49.41
73842;BME280;62184;52.006;5.924;2023-08-17T02:03:33;101207.09;;;22.89;49.75
73842;BME280;62184;52.006;5.924;2023-08-17T02:05:59;101209.28;;;22.83;49.79
73842;BME280;62184;52.006;5.924;2023-08-17T02:08:26;101206.75;;;22.80;49.75
73842;BME280;62184;52.006;5.924;2023-08-17T02:10:52;101202.38;;;22.78;49.67
73842;BME280;62184;52.006;5.924;2023-08-17T02:13:21;101210.25;;;22.82;49.79
73842;BME280;62184;52.006;5.924;2023-08-17T02:15:48;101210.00;;;22.86;49.56
73842;BME280;62184;52.006;5.924;2023-08-17T02:18:14;101207.19;;;22.87;49.86
73842;BME280;62184;52.006;5.924;2023-08-17T02:20:41;101207.41;;;22.84;49.89
73842;BME280;62184;52.006;5.924;2023-08-17T02:23:07;101212.53;;;22.76;49.64
73842;BME280;62184;52.006;5.924;2023-08-17T02:25:33;101214.38;;;22.75;49.82
73842;BME280;62184;52.006;5.924;2023-08-17T02:28:04;101207.72;;;22.79;49.85
73842;BME280;62184;52.006;5.924;2023-08-17T02:30:33;101211.22;;;22.81;50.06
73842;BME280;62184;52.006;5.924;2023-08-17T02:33:00;101206.31;;;22.74;49.64
73842;BME280;62184;52.006;5.924;2023-08-17T02:35:26;101209.03;;;22.74;50.21
73842;BME280;62184;52.006;5.924;2023-08-17T02:37:53;101198.91;;;22.76;49.80
73842;BME280;62184;52.006;5.924;2023-08-17T02:40:19;101200.75;;;22.75;49.70
73842;BME280;62184;52.006;5.924;2023-08-17T02:42:46;101197.16;;;22.75;49.93
73842;BME280;62184;52.006;5.924;2023-08-17T02:45:12;101204.34;;;22.76;49.92
73842;BME280;62184;52.006;5.924;2023-08-17T02:47:42;101189.88;;;22.75;49.41
73842;BME280;62184;52.006;5.924;2023-08-17T02:50:09;101199.31;;;22.70;49.42
73842;BME280;62184;52.006;5.924;2023-08-17T02:52:36;101194.09;;;22.67;49.58
73842;BME280;62184;52.006;5.924;2023-08-17T02:55:03;101197.91;;;22.64;49.72
73842;BME280;62184;52.006;5.924;2023-08-17T02:57:30;101196.94;;;22.65;49.77
73842;BME280;62184;52.006;5.924;2023-08-17T02:59:56;101200.53;;;22.66;50.00
73842;BME280;62184;52.006;5.924;2023-08-17T03:02:23;101196.06;;;22.65;49.70
73842;BME280;62184;52.006;5.924;2023-08-17T03:04:52;101198.88;;;22.63;49.61
73842;BME280;62184;52.006;5.924;2023-08-17T03:07:18;101196.69;;;22.56;49.66
73842;BME280;62184;52.006;5.924;2023-08-17T03:09:45;101201.34;;;22.54;49.96
73842;BME280;62184;52.006;5.924;2023-08-17T03:12:11;101199.91;;;22.48;50.29
73842;BME280;62184;52.006;5.924;2023-08-17T03:14:38;101200.00;;;22.46;50.09
73842;BME280;62184;52.006;5.924;2023-08-17T03:17:04;101191.31;;;22.41;50.40
73842;BME280;62184;52.006;5.924;2023-08-17T03:19:31;101188.88;;;22.37;50.16
73842;BME280;62184;52.006;5.924;2023-08-17T03:22:00;101192.03;;;22.31;50.30
73842;BME280;62184;52.006;5.924;2023-08-17T03:24:26;101181.34;;;22.28;50.58
73842;BME280;62184;52.006;5.924;2023-08-17T03:26:53;101176.22;;;22.23;50.46
73842;BME280;62184;52.006;5.924;2023-08-17T03:29:19;101180.88;;;22.21;50.61
73842;BME280;62184;52.006;5.924;2023-08-17T03:31:46;101180.25;;;22.18;50.87
73842;BME280;62184;52.006;5.924;2023-08-17T03:34:12;101188.06;;;22.10;50.93
73842;BME280;62184;52.006;5.924;2023-08-17T03:36:39;101186.69;;;22.02;51.18
73842;BME280;62184;52.006;5.924;2023-08-17T03:39:08;101184.94;;;22.01;50.82
73842;BME280;62184;52.006;5.924;2023-08-17T03:41:34;101185.81;;;22.02;51.32
73842;BME280;62184;52.006;5.924;2023-08-17T03:44:01;101174.47;;;21.95;51.42
73842;BME280;62184;52.006;5.924;2023-08-17T03:46:28;101176.56;;;21.92;51.05
73842;BME280;62184;52.006;5.924;2023-08-17T03:48:54;101178.31;;;21.93;51.04
73842;BME280;62184;52.006;5.924;2023-08-17T03:51:21;101179.81;;;21.97;51.53
73842;BME280;62184;52.006;5.924;2023-08-17T03:53:47;101173.50;;;21.96;51.43
73842;BME280;62184;52.006;5.924;2023-08-17T03:56:16;101173.59;;;21.95;51.00
73842;BME280;62184;52.006;5.924;2023-08-17T03:58:43;101173.69;;;21.93;51.33
73842;BME280;62184;52.006;5.924;2023-08-17T04:01:09;101173.84;;;21.92;51.12
73842;BME280;62184;52.006;5.924;2023-08-17T04:03:36;101175.97;;;21.87;51.33
73842;BME280;62184;52.006;5.924;2023-08-17T04:06:04;101159.88;;;21.84;51.17
73842;BME280;62184;52.006;5.924;2023-08-17T04:08:31;101173.84;;;21.78;51.49
73842;BME280;62184;52.006;5.924;2023-08-17T04:10:57;101175.69;;;21.77;51.84
73842;BME280;62184;52.006;5.924;2023-08-17T04:13:26;101172.25;;;21.75;51.52
73842;BME280;62184;52.006;5.924;2023-08-17T04:15:53;101178.72;;;21.73;51.97
73842;BME280;62184;52.006;5.924;2023-08-17T04:18:19;101172.59;;;21.69;51.92
73842;BME280;62184;52.006;5.924;2023-08-17T04:20:46;101178.25;;;21.66;51.72
73842;BME280;62184;52.006;5.924;2023-08-17T04:23:12;101172.72;;;21.67;51.69
73842;BME280;62184;52.006;5.924;2023-08-17T04:25:39;101172.72;;;21.67;52.00
73842;BME280;62184;52.006;5.924;2023-08-17T04:28:06;101179.00;;;21.68;52.16
73842;BME280;62184;52.006;5.924;2023-08-17T04:30:35;101184.56;;;21.66;51.80
73842;BME280;62184;52.006;5.924;2023-08-17T04:33:04;101178.25;;;21.66;51.96
73842;BME280;62184;52.006;5.924;2023-08-17T04:35:30;101181.72;;;21.68;52.01
73842;BME280;62184;52.006;5.924;2023-08-17T04:37:57;101180.88;;;21.67;52.06
73842;BME280;62184;52.006;5.924;2023-08-17T04:40:23;101188.91;;;21.69;51.73
73842;BME280;62184;52.006;5.924;2023-08-17T04:42:50;101187.84;;;21.71;52.12
73842;BME280;62184;52.006;5.924;2023-08-17T04:45:16;101194.25;;;21.70;52.15
73842;BME280;62184;52.006;5.924;2023-08-17T04:47:45;101196.00;;;21.71;51.73
73842;BME280;62184;52.006;5.924;2023-08-17T04:50:12;101196.59;;;21.77;52.02
73842;BME280;62184;52.006;5.924;2023-08-17T04:52:38;101196.38;;;21.80;52.03
73842;BME280;62184;52.006;5.924;2023-08-17T04:55:05;101201.22;;;21.89;51.50
73842;BME280;62184;52.006;5.924;2023-08-17T04:57:32;101193.84;;;21.91;51.58
73842;BME280;62184;52.006;5.924;2023-08-17T04:59:59;101198.00;;;21.96;51.59
73842;BME280;62184;52.006;5.924;2023-08-17T05:02:25;101193.22;;;22.00;51.44
73842;BME280;62184;52.006;5.924;2023-08-17T05:04:54;101198.25;;;22.06;50.94
73842;BME280;62184;52.006;5.924;2023-08-17T05:07:21;101199.03;;;22.08;50.90
73842;BME280;62184;52.006;5.924;2023-08-17T05:09:47;101192.72;;;22.07;50.87
73842;BME280;62184;52.006;5.924;2023-08-17T05:12:14;101187.19;;;22.09;51.14
73842;BME280;62184;52.006;5.924;2023-08-17T05:17:06;101192.84;;;22.19;50.73
73842;BME280;62184;52.006;5.924;2023-08-17T05:19:33;101190.81;;;22.22;50.95
73842;BME280;62184;52.006;5.924;2023-08-17T05:22:02;101191.34;;;22.27;50.51
73842;BME280;62184;52.006;5.924;2023-08-17T05:24:28;101198.16;;;22.34;50.88
73842;BME280;62184;52.006;5.924;2023-08-17T05:26:55;101194.22;;;22.38;50.81
73842;BME280;62184;52.006;5.924;2023-08-17T05:29:21;101190.44;;;22.41;50.34
73842;BME280;62184;52.006;5.924;2023-08-17T05:31:47;101194.56;;;22.46;50.30
73842;BME280;62184;52.006;5.924;2023-08-17T05:34:14;101196.69;;;22.56;50.50
73842;BME280;62184;52.006;5.924;2023-08-17T05:36:40;101195.84;;;22.68;50.52
73842;BME280;62184;52.006;5.924;2023-08-17T05:39:09;101203.59;;;22.87;49.98
73842;BME280;62184;52.006;5.924;2023-08-17T05:41:36;101200.00;;;22.99;49.53
73842;BME280;62184;52.006;5.924;2023-08-17T05:44:03;101204.13;;;23.04;49.38
73842;BME280;62184;52.006;5.924;2023-08-17T05:46:30;101201.41;;;23.04;48.97
73842;BME280;62184;52.006;5.924;2023-08-17T05:48:56;101203.16;;;23.05;48.89
73842;BME280;62184;52.006;5.924;2023-08-17T05:51:23;101199.47;;;23.06;48.93
73842;BME280;62184;52.006;5.924;2023-08-17T05:53:49;101202.09;;;23.08;48.84
73842;BME280;62184;52.006;5.924;2023-08-17T05:56:18;101202.38;;;23.03;49.21
73842;BME280;62184;52.006;5.924;2023-08-17T05:58:45;101206.34;;;22.99;48.84
73842;BME280;62184;52.006;5.924;2023-08-17T06:01:12;101206.09;;;22.90;49.32
73842;BME280;62184;52.006;5.924;2023-08-17T06:03:38;101204.56;;;22.86;49.23
73842;BME280;62184;52.006;5.924;2023-08-17T06:06:05;101211.66;;;22.88;49.71
73842;BME280;62184;52.006;5.924;2023-08-17T06:08:31;101216.13;;;22.89;49.18
73842;BME280;62184;52.006;5.924;2023-08-17T06:10:58;101219.81;;;22.88;49.32
73842;BME280;62184;52.006;5.924;2023-08-17T06:13:27;101225.50;;;22.85;49.52
73842;BME280;62184;52.006;5.924;2023-08-17T06:15:55;101215.16;;;22.90;49.38
73842;BME280;62184;52.006;5.924;2023-08-17T06:18:22;101216.31;;;22.86;49.38
73842;BME280;62184;52.006;5.924;2023-08-17T06:20:49;101218.53;;;22.81;49.30
73842;BME280;62184;52.006;5.924;2023-08-17T06:23:15;101221.34;;;22.79;49.19
73842;BME280;62184;52.006;5.924;2023-08-17T06:25:42;101229.94;;;22.86;49.19
73842;BME280;62184;52.006;5.924;2023-08-17T06:28:09;101229.84;;;22.88;49.36
73842;BME280;62184;52.006;5.924;2023-08-17T06:30:38;101226.16;;;22.89;49.19
73842;BME280;62184;52.006;5.924;2023-08-17T06:33:04;101219.81;;;22.88;49.61
73842;BME280;62184;52.006;5.924;2023-08-17T06:35:31;101224.19;;;22.91;49.05
73842;BME280;62184;52.006;5.924;2023-08-17T06:37:57;101230.72;;;22.88;49.20
73842;BME280;62184;52.006;5.924;2023-08-17T06:40:24;101223.13;;;22.93;49.23
73842;BME280;62184;52.006;5.924;2023-08-17T06:42:50;101227.06;;;23.02;49.48
73842;BME280;62184;52.006;5.924;2023-08-17T06:45:17;101226.38;;;23.11;49.13
73842;BME280;62184;52.006;5.924;2023-08-17T06:47:46;101227.50;;;23.21;49.12
73842;BME280;62184;52.006;5.924;2023-08-17T06:50:13;101228.94;;;23.27;48.99
73842;BME280;62184;52.006;5.924;2023-08-17T06:52:39;101230.13;;;23.35;49.23
73842;BME280;62184;52.006;5.924;2023-08-17T06:55:06;101239.47;;;23.44;48.68
73842;BME280;62184;52.006;5.924;2023-08-17T06:57:33;101231.63;;;23.52;48.78
73842;BME280;62184;52.006;5.924;2023-08-17T07:00:00;101230.09;;;23.48;48.34
73842;BME280;62184;52.006;5.924;2023-08-17T07:02:26;101237.72;;;23.55;48.88
73842;BME280;62184;52.006;5.924;2023-08-17T07:04:55;101229.16;;;23.73;48.34
73842;BME280;62184;52.006;5.924;2023-08-17T07:07:22;101233.09;;;23.81;48.62
73842;BME280;62184;52.006;5.924;2023-08-17T07:09:48;101226.94;;;23.90;47.79
73842;BME280;62184;52.006;5.924;2023-08-17T07:12:15;101229.34;;;23.95;48.43
73842;BME280;62184;52.006;5.924;2023-08-17T07:14:41;101236.34;;;23.99;47.68
73842;BME280;62184;52.006;5.924;2023-08-17T07:17:08;101240.81;;;24.00;47.48
73842;BME280;62184;52.006;5.924;2023-08-17T07:19:34;101244.63;;;23.98;47.84
73842;BME280;62184;52.006;5.924;2023-08-17T07:22:03;101241.91;;;23.98;47.61
73842;BME280;62184;52.006;5.924;2023-08-17T07:24:30;101242.66;;;24.00;48.01
73842;BME280;62184;52.006;5.924;2023-08-17T07:26:56;101251.38;;;24.05;47.94
73842;BME280;62184;52.006;5.924;2023-08-17T07:29:23;101245.91;;;24.05;47.43
73842;BME280;62184;52.006;5.924;2023-08-17T07:31:49;101256.34;;;24.11;48.14
73842;BME280;62184;52.006;5.924;2023-08-17T07:34:16;101239.00;;;24.12;47.11
73842;BME280;62184;52.006;5.924;2023-08-17T07:36:42;101248.94;;;24.13;48.01
73842;BME280;62184;52.006;5.924;2023-08-17T07:39:11;101241.69;;;24.24;47.62
73842;BME280;62184;52.006;5.924;2023-08-17T07:41:38;101241.44;;;24.27;47.37
73842;BME280;62184;52.006;5.924;2023-08-17T07:44:05;101250.19;;;24.32;47.19
73842;BME280;62184;52.006;5.924;2023-08-17T07:46:31;101249.38;;;24.43;47.69
73842;BME280;62184;52.006;5.924;2023-08-17T07:48:58;101236.72;;;24.53;47.40
73842;BME280;62184;52.006;5.924;2023-08-17T07:51:24;101232.78;;;24.57;46.95
73842;BME280;62184;52.006;5.924;2023-08-17T07:53:51;101235.22;;;24.49;46.94
73842;BME280;62184;52.006;5.924;2023-08-17T07:56:20;101238.94;;;24.48;47.04
73842;BME280;62184;52.006;5.924;2023-08-17T07:58:46;101244.06;;;24.29;46.87
73842;BME280;62184;52.006;5.924;2023-08-17T08:01:13;101249.78;;;24.26;47.09
73842;BME280;62184;52.006;5.924;2023-08-17T08:03:39;101248.31;;;24.33;47.44
73842;BME280;62184;52.006;5.924;2023-08-17T08:06:06;101252.50;;;24.50;47.53
73842;BME280;62184;52.006;5.924;2023-08-17T08:08:32;101255.13;;;24.51;46.91
73842;BME280;62184;52.006;5.924;2023-08-17T08:10:59;101251.91;;;24.57;46.86
73842;BME280;62184;52.006;5.924;2023-08-17T08:13:28;101256.00;;;24.52;46.77
73842;BME280;62184;52.006;5.924;2023-08-17T08:15:54;101261.16;;;24.44;47.02
73842;BME280;62184;52.006;5.924;2023-08-17T08:18:21;101261.50;;;24.39;47.41
73842;BME280;62184;52.006;5.924;2023-08-17T08:20:48;101272.78;;;24.35;47.26
73842;BME280;62184;52.006;5.924;2023-08-17T08:23:14;101260.22;;;24.32;47.26
73842;BME280;62184;52.006;5.924;2023-08-17T08:25:41;101264.16;;;24.28;47.32
73842;BME280;62184;52.006;5.924;2023-08-17T08:28:07;101258.94;;;24.25;47.53
73842;BME280;62184;52.006;5.924;2023-08-17T08:30:36;101255.84;;;24.29;47.38
73842;BME280;62184;52.006;5.924;2023-08-17T08:33:03;101259.84;;;24.37;47.45
73842;BME280;62184;52.006;5.924;2023-08-17T08:35:30;101260.41;;;24.42;47.64
73842;BME280;62184;52.006;5.924;2023-08-17T08:37:58;101241.69;;;24.48;47.77
73842;BME280;62184;52.006;5.924;2023-08-17T08:40:28;101242.31;;;24.52;47.57
73842;BME280;62184;52.006;5.924;2023-08-17T08:42:56;101235.19;;;24.62;47.26
73842;BME280;62184;52.006;5.924;2023-08-17T08:45:23;101238.81;;;24.74;47.38
73842;BME280;62184;52.006;5.924;2023-08-17T08:47:57;101253.53;;;24.84;46.63
73842;BME280;62184;52.006;5.924;2023-08-17T08:50:28;101246.69;;;24.89;46.87
73842;BME280;62184;52.006;5.924;2023-08-17T08:52:59;101251.19;;;24.90;46.44
73842;BME280;62184;52.006;5.924;2023-08-17T08:55:29;101248.31;;;24.92;46.58
73842;BME280;62184;52.006;5.924;2023-08-17T08:58:00;101246.84;;;24.99;46.75
73842;BME280;62184;52.006;5.924;2023-08-17T09:00:29;101246.84;;;24.99;46.60
73842;BME280;62184;52.006;5.924;2023-08-17T09:02:59;101241.63;;;24.96;46.59
73842;BME280;62184;52.006;5.924;2023-08-17T09:05:28;101238.75;;;24.97;46.39
73842;BME280;62184;52.006;5.924;2023-08-17T09:07:55;101232.19;;;25.00;46.85
73842;BME280;62184;52.006;5.924;2023-08-17T09:10:23;101230.59;;;25.08;46.60
73842;BME280;62184;52.006;5.924;2023-08-17T09:12:50;101231.22;;;25.23;46.14
73842;BME280;62184;52.006;5.924;2023-08-17T09:15:16;101227.91;;;25.31;45.87
73842;BME280;62184;52.006;5.924;2023-08-17T09:17:43;101230.03;;;25.38;46.21
73842;BME280;62184;52.006;5.924;2023-08-17T09:20:36;101233.00;;;25.47;45.70
73842;BME280;62184;52.006;5.924;2023-08-17T09:23:04;101227.06;;;25.53;46.31
73842;BME280;62184;52.006;5.924;2023-08-17T09:25:31;101227.44;;;25.59;45.99
73842;BME280;62184;52.006;5.924;2023-08-17T09:27:58;101223.53;;;25.62;45.89
73842;BME280;62184;52.006;5.924;2023-08-17T09:30:25;101228.41;;;25.69;46.17
73842;BME280;62184;52.006;5.924;2023-08-17T09:32:51;101233.38;;;25.75;45.60
73842;BME280;62184;52.006;5.924;2023-08-17T09:35:20;101221.81;;;25.83;45.50
73842;BME280;62184;52.006;5.924;2023-08-17T09:37:47;101227.88;;;25.87;45.48
73842;BME280;62184;52.006;5.924;2023-08-17T09:40:14;101229.75;;;25.86;45.30
73842;BME280;62184;52.006;5.924;2023-08-17T09:42:41;101226.75;;;25.89;45.37
73842;BME280;62184;52.006;5.924;2023-08-17T09:45:08;101228.41;;;25.92;45.02
73842;BME280;62184;52.006;5.924;2023-08-17T09:47:35;101223.81;;;25.92;45.12
73842;BME280;62184;52.006;5.924;2023-08-17T09:50:05;101222.41;;;25.98;44.92
73842;BME280;62184;52.006;5.924;2023-08-17T09:52:38;101219.44;;;26.01;45.46
73842;BME280;62184;52.006;5.924;2023-08-17T09:55:06;101226.75;;;26.11;45.84
73842;BME280;62184;52.006;5.924;2023-08-17T09:57:36;101221.22;;;26.23;45.38
73842;BME280;62184;52.006;5.924;2023-08-17T10:00:04;101214.50;;;26.27;44.49
73842;BME280;62184;52.006;5.924;2023-08-17T10:02:32;101222.44;;;26.30;44.53
73842;BME280;62184;52.006;5.924;2023-08-17T10:05:00;101222.97;;;26.24;44.53
73842;BME280;62184;52.006;5.924;2023-08-17T10:07:30;101222.00;;;26.13;44.61
73842;BME280;62184;52.006;5.924;2023-08-17T10:10:03;101210.81;;;26.05;44.81
73842;BME280;62184;52.006;5.924;2023-08-17T10:12:36;101221.91;;;26.04;45.03
73842;BME280;62184;52.006;5.924;2023-08-17T10:15:11;101208.97;;;26.06;45.29
73842;BME280;62184;52.006;5.924;2023-08-17T10:17:43;101214.78;;;26.12;45.18
73842;BME280;62184;52.006;5.924;2023-08-17T10:20:18;101218.78;;;26.08;44.93
73842;BME280;62184;52.006;5.924;2023-08-17T10:22:52;101214.31;;;25.96;45.08
73842;BME280;62184;52.006;5.924;2023-08-17T10:25:30;101219.81;;;25.85;44.97
73842;BME280;62184;52.006;5.924;2023-08-17T10:27:57;101224.91;;;25.78;45.09
73842;BME280;62184;52.006;5.924;2023-08-17T10:30:24;101220.06;;;25.71;45.74
73842;BME280;62184;52.006;5.924;2023-08-17T10:32:51;101212.84;;;25.70;46.00
73842;BME280;62184;52.006;5.924;2023-08-17T10:35:18;101203.28;;;25.64;45.68
73842;BME280;62184;52.006;5.924;2023-08-17T10:37:45;101210.13;;;25.59;45.47
73842;BME280;62184;52.006;5.924;2023-08-17T10:40:11;101198.56;;;25.55;46.08
73842;BME280;62184;52.006;5.924;2023-08-17T10:42:41;101205.91;;;25.55;45.98
73842;BME280;62184;52.006;5.924;2023-08-17T10:45:26;101195.47;;;25.60;46.59
73842;BME280;62184;52.006;5.924;2023-08-17T10:48:29;101196.41;;;25.70;46.14
73842;BME280;62184;52.006;5.924;2023-08-17T10:51:00;101199.78;;;25.73;45.74
73842;BME280;62184;52.006;5.924;2023-08-17T10:53:34;101199.31;;;25.68;46.28
73842;BME280;62184;52.006;5.924;2023-08-17T10:56:01;101202.16;;;25.78;46.56
73842;BME280;62184;52.006;5.924;2023-08-17T10:58:36;101192.69;;;25.82;46.24
73842;BME280;62184;52.006;5.924;2023-08-17T11:01:02;101195.91;;;25.87;46.34
73842;BME280;62184;52.006;5.924;2023-08-17T11:03:29;101193.44;;;25.84;46.05
73842;BME280;62184;52.006;5.924;2023-08-17T11:05:56;101198.56;;;25.77;45.54
73842;BME280;62184;52.006;5.924;2023-08-17T11:08:27;101194.19;;;25.75;46.19
73842;BME280;62184;52.006;5.924;2023-08-17T11:11:02;101197.69;;;25.77;45.98
73842;BME280;62184;52.006;5.924;2023-08-17T11:13:31;101198.16;;;25.82;46.24
73842;BME280;62184;52.006;5.924;2023-08-17T11:16:02;101196.16;;;25.84;46.17
73842;BME280;62184;52.006;5.924;2023-08-17T11:18:30;101190.44;;;25.98;46.48
73842;BME280;62184;52.006;5.924;2023-08-17T11:20:56;101193.38;;;26.17;46.61
73842;BME280;62184;52.006;5.924;2023-08-17T11:23:23;101184.47;;;26.36;45.76
73842;BME280;62184;52.006;5.924;2023-08-17T11:25:52;101188.41;;;26.43;45.48
73842;BME280;62184;52.006;5.924;2023-08-17T11:28:18;101196.00;;;26.40;45.14
73842;BME280;62184;52.006;5.924;2023-08-17T11:30:45;101198.00;;;26.38;45.37
73842;BME280;62184;52.006;5.924;2023-08-17T11:33:14;101195.00;;;26.41;45.21
73842;BME280;62184;52.006;5.924;2023-08-17T11:35:41;101193.28;;;26.40;44.82
73842;BME280;62184;52.006;5.924;2023-08-17T11:38:07;101187.22;;;26.36;44.67
73842;BME280;62184;52.006;5.924;2023-08-17T11:40:34;101196.53;;;26.34;44.45
73842;BME280;62184;52.006;5.924;2023-08-17T11:43:01;101194.94;;;26.31;45.33
73842;BME280;62184;52.006;5.924;2023-08-17T11:45:27;101200.16;;;26.34;45.51
73842;BME280;62184;52.006;5.924;2023-08-17T11:47:54;101206.75;;;26.32;45.42
73842;BME280;62184;52.006;5.924;2023-08-17T11:50:24;101206.28;;;26.27;45.34
73842;BME280;62184;52.006;5.924;2023-08-17T11:52:51;101213.28;;;26.19;45.41
73842;BME280;62184;52.006;5.924;2023-08-17T11:55:17;101211.66;;;26.17;45.50
73842;BME280;62184;52.006;5.924;2023-08-17T11:57:44;101208.41;;;26.23;46.18
73842;BME280;62184;52.006;5.924;2023-08-17T12:00:17;101211.69;;;26.38;45.58
73842;BME280;62184;52.006;5.924;2023-08-17T12:02:47;101206.44;;;26.46;45.75
73842;BME280;62184;52.006;5.924;2023-08-17T12:05:19;101200.31;;;26.53;45.32
73842;BME280;62184;52.006;5.924;2023-08-17T12:07:48;101200.69;;;26.49;45.82
73842;BME280;62184;52.006;5.924;2023-08-17T12:10:16;101201.81;;;26.46;45.70
73842;BME280;62184;52.006;5.924;2023-08-17T12:12:44;101192.41;;;26.39;45.93
73842;BME280;62184;52.006;5.924;2023-08-17T12:15:12;101189.75;;;26.49;45.50
73842;BME280;62184;52.006;5.924;2023-08-17T12:17:44;101188.88;;;26.60;45.93
73842;BME280;62184;52.006;5.924;2023-08-17T12:20:15;101193.19;;;26.62;45.41
73842;BME280;62184;52.006;5.924;2023-08-17T12:22:43;101191.38;;;26.51;44.94
73842;BME280;62184;52.006;5.924;2023-08-17T12:25:12;101194.03;;;26.42;45.14
73842;BME280;62184;52.006;5.924;2023-08-17T12:27:39;101191.88;;;26.45;45.86
73842;BME280;62184;52.006;5.924;2023-08-17T12:30:12;101188.56;;;26.63;46.26
73842;BME280;62184;52.006;5.924;2023-08-17T12:32:40;101180.50;;;26.82;45.53
73842;BME280;62184;52.006;5.924;2023-08-17T12:35:07;101186.44;;;26.87;44.80
73842;BME280;62184;52.006;5.924;2023-08-17T12:37:34;101190.88;;;26.78;44.86
73842;BME280;62184;52.006;5.924;2023-08-17T12:40:00;101177.56;;;26.74;45.14
73842;BME280;62184;52.006;5.924;2023-08-17T12:42:29;101184.16;;;26.71;44.82
73842;BME280;62184;52.006;5.924;2023-08-17T12:44:56;101195.13;;;26.71;45.28
73842;BME280;62184;52.006;5.924;2023-08-17T12:47:22;101192.75;;;26.78;45.04
73842;BME280;62184;52.006;5.924;2023-08-17T12:49:49;101200.56;;;26.82;44.76
73842;BME280;62184;52.006;5.924;2023-08-17T12:52:15;101204.09;;;26.73;44.75
73842;BME280;62184;52.006;5.924;2023-08-17T12:54:41;101191.31;;;26.63;45.07
73842;BME280;62184;52.006;5.924;2023-08-17T12:57:08;101195.09;;;26.62;45.52